Time;durP1;ratioP1;P1;durP2;ratioP2;P2;SDS_P1;SDS_P2;PMS_P1;PMS_P2;Temp;Humidity;BMP_temperature;BMP_pressure;BME280_temperature;BME280_humidity;BME280_pressure;Samples;Min_cycle;Max_cycle;Signal;HPM_P1;HPM_P2
2023/07/27 00:00:05;;;;;;;6.95;3.45;;;;;;;;;;5016424;28;20100;-70
2023/07/27 00:02:31;;;;;;;6.05;3.45;;;;;;;;;;5016686;28;20037;-70
2023/07/27 00:04:57;;;;;;;7.68;3.08;;;;;;;;;;5015932;28;20446;-69
2023/07/27 00:07:24;;;;;;;4.65;2.42;;;;;;;;;;5016288;28;20038;-70
2023/07/27 00:09:50;;;;;;;5.45;2.72;;;;;;;;;;5016483;28;20029;-69
2023/07/27 00:12:16;;;;;;;7.15;3.30;;;;;;;;;;5016289;28;20025;-69
2023/07/27 00:14:42;;;;;;;7.47;3.17;;;;;;;;;;5016155;28;20455;-69
2023/07/27 00:17:08;;;;;;;5.55;2.85;;;;;;;;;;5016336;28;20113;-70
2023/07/27 00:19:34;;;;;;;7.35;3.05;;;;;;;;;;5016520;28;20057;-70
2023/07/27 00:22:00;;;;;;;6.70;3.00;;;;;;;;;;5016209;28;20061;-70
2023/07/27 00:24:26;;;;;;;5.50;3.00;;;;;;;;;;5016485;28;20545;-70
2023/07/27 00:26:53;;;;;;;6.13;2.70;;;;;;;;;;5016547;28;20029;-69
2023/07/27 00:29:19;;;;;;;5.10;2.50;;;;;;;;;;5016121;28;20101;-70
2023/07/27 00:31:45;;;;;;;6.35;2.90;;;;;;;;;;5016167;28;20021;-69
2023/07/27 00:34:11;;;;;;;5.88;3.15;;;;;;;;;;5016251;28;20038;-69
2023/07/27 00:36:37;;;;;;;9.10;3.25;;;;;;;;;;5015933;28;20392;-69
2023/07/27 00:39:03;;;;;;;6.88;3.58;;;;;;;;;;5015869;28;20037;-69
2023/07/27 00:41:29;;;;;;;8.18;3.83;;;;;;;;;;4998620;28;20099;-69
2023/07/27 00:43:55;;;;;;;6.45;3.20;;;;;;;;;;5016084;28;20040;-69
2023/07/27 00:46:21;;;;;;;5.88;3.08;;;;;;;;;;5015873;28;20026;-70
2023/07/27 00:48:47;;;;;;;6.28;3.30;;;;;;;;;;5015704;28;20044;-70
2023/07/27 00:51:13;;;;;;;5.95;3.15;;;;;;;;;;5015986;28;20033;-69
2023/07/27 00:53:39;;;;;;;6.38;3.28;;;;;;;;;;5015609;28;20068;-70
2023/07/27 00:56:06;;;;;;;6.32;3.45;;;;;;;;;;5016026;28;20409;-69
2023/07/27 00:58:32;;;;;;;8.02;4.68;;;;;;;;;;5015473;28;20088;-72
2023/07/27 01:01:00;;;;;;;6.85;4.30;;;;;;;;;;5011992;28;20026;-69
2023/07/27 01:03:26;;;;;;;10.27;4.63;;;;;;;;;;5012465;28;20042;-71
2023/07/27 01:05:52;;;;;;;9.75;5.15;;;;;;;;;;5012503;28;20088;-70
2023/07/27 01:08:18;;;;;;;9.40;6.07;;;;;;;;;;5013094;28;20073;-70
2023/07/27 01:11:10;;;;;;;10.88;6.47;;;;;;;;;;5012745;28;20052;-71
2023/07/27 01:13:52;;;;;;;9.85;6.22;;;;;;;;;;5008406;28;20037;-72
2023/07/27 01:16:21;;;;;;;9.77;5.90;;;;;;;;;;5012581;28;20037;-70
2023/07/27 01:18:54;;;;;;;11.88;7.05;;;;;;;;;;5012552;28;20105;-71
2023/07/27 01:21:29;;;;;;;11.18;6.20;;;;;;;;;;5011906;28;20411;-70
2023/07/27 01:24:10;;;;;;;12.05;7.00;;;;;;;;;;5012608;28;20641;-70
2023/07/27 01:26:35;;;;;;;;;;;;;;;;;;5012783;28;20045;-71
2023/07/27 01:29:06;;;;;;;12.27;5.85;;;;;;;;;;5012062;28;20356;-71
2023/07/27 01:31:33;;;;;;;10.80;6.63;;;;;;;;;;5011718;28;20466;-72
2023/07/27 01:34:03;;;;;;;12.57;7.20;;;;;;;;;;5012307;28;20034;-71
2023/07/27 01:36:31;;;;;;;11.93;7.80;;;;;;;;;;5012196;28;20022;-71
2023/07/27 01:39:00;;;;;;;10.85;6.38;;;;;;;;;;5011403;28;20057;-71
2023/07/27 01:41:28;;;;;;;10.73;7.30;;;;;;;;;;4994524;28;20432;-71
2023/07/27 01:43:56;;;;;;;11.07;7.30;;;;;;;;;;5012028;28;20025;-71
2023/07/27 01:46:22;;;;;;;10.98;7.38;;;;;;;;;;5012257;28;20033;-70
2023/07/27 01:48:48;;;;;;;9.98;6.93;;;;;;;;;;5011371;28;20101;-70
2023/07/27 01:51:15;;;;;;;10.95;5.55;;;;;;;;;;5011933;28;20479;-70
2023/07/27 01:53:41;;;;;;;10.60;7.10;;;;;;;;;;5011097;28;20076;-71
2023/07/27 01:56:08;;;;;;;12.32;7.05;;;;;;;;;;5011851;28;20558;-71
2023/07/27 01:58:38;;;;;;;10.40;6.38;;;;;;;;;;5011612;28;20026;-70
2023/07/27 02:01:05;;;;;;;12.77;7.93;;;;;;;;;;5011333;28;20057;-70
2023/07/27 02:03:31;;;;;;;11.25;8.15;;;;;;;;;;5011642;28;20472;-70
2023/07/27 02:05:57;;;;;;;10.43;7.30;;;;;;;;;;5011873;28;20022;-73
2023/07/27 02:08:23;;;;;;;13.48;7.95;;;;;;;;;;5011841;28;20431;-72
2023/07/27 02:10:52;;;;;;;14.18;8.00;;;;;;;;;;5011352;28;20022;-71
2023/07/27 02:13:22;;;;;;;11.52;7.05;;;;;;;;;;5011005;28;20488;-71
2023/07/27 02:15:50;;;;;;;9.27;6.32;;;;;;;;;;5011528;28;20034;-71
2023/07/27 02:18:20;;;;;;;10.27;6.97;;;;;;;;;;5011637;28;20054;-71
2023/07/27 02:20:47;;;;;;;13.38;8.18;;;;;;;;;;5011364;28;20122;-71
2023/07/27 02:23:13;;;;;;;8.85;6.30;;;;;;;;;;5011239;28;20146;-71
2023/07/27 02:25:39;;;;;;;11.15;7.05;;;;;;;;;;5011411;28;20423;-72
2023/07/27 02:28:05;;;;;;;11.52;7.78;;;;;;;;;;5010605;28;20143;-72
2023/07/27 02:30:31;;;;;;;13.32;8.27;;;;;;;;;;5011076;28;20037;-71
2023/07/27 02:32:57;;;;;;;12.95;8.73;;;;;;;;;;5011189;28;20105;-72
2023/07/27 02:35:23;;;;;;;11.85;8.20;;;;;;;;;;5010493;28;20388;-72
2023/07/27 02:37:49;;;;;;;10.48;6.97;;;;;;;;;;5011303;28;20076;-73
2023/07/27 02:40:15;;;;;;;12.38;7.85;;;;;;;;;;5011189;28;20399;-72
2023/07/27 02:42:41;;;;;;;13.27;7.68;;;;;;;;;;5010369;28;20066;-72
2023/07/27 02:45:07;;;;;;;14.05;8.43;;;;;;;;;;5010933;28;20439;-72
2023/07/27 02:47:33;;;;;;;11.25;8.00;;;;;;;;;;5010797;28;20510;-72
2023/07/27 02:49:59;;;;;;;11.80;8.38;;;;;;;;;;5010865;28;20060;-72
2023/07/27 02:52:25;;;;;;;12.15;8.35;;;;;;;;;;5010445;28;20037;-72
2023/07/27 02:54:51;;;;;;;11.23;7.53;;;;;;;;;;4992695;28;20057;-72
2023/07/27 02:57:17;;;;;;;14.70;9.90;;;;;;;;;;4993133;28;20028;-72
2023/07/27 02:59:43;;;;;;;12.23;7.50;;;;;;;;;;5010284;28;20435;-71
2023/07/27 03:02:09;;;;;;;14.30;9.90;;;;;;;;;;5010751;28;20037;-72
2023/07/27 03:04:35;;;;;;;15.55;10.32;;;;;;;;;;4993204;28;20053;-72
2023/07/27 03:07:01;;;;;;;12.95;9.88;;;;;;;;;;5010519;28;20028;-72
2023/07/27 03:09:27;;;;;;;15.55;10.25;;;;;;;;;;5010681;28;20034;-72
2023/07/27 03:11:53;;;;;;;16.48;11.13;;;;;;;;;;5010319;28;20117;-72
2023/07/27 03:14:19;;;;;;;17.33;12.95;;;;;;;;;;5010577;28;20033;-72
2023/07/27 03:16:45;;;;;;;12.80;8.60;;;;;;;;;;5010222;28;20033;-73
2023/07/27 03:19:11;;;;;;;17.90;12.88;;;;;;;;;;5010432;28;20474;-72
2023/07/27 03:21:37;;;;;;;11.75;8.05;;;;;;;;;;4992281;28;20022;-71
2023/07/27 03:24:03;;;;;;;16.52;10.80;;;;;;;;;;5009574;28;20033;-71
2023/07/27 03:26:32;;;;;;;17.70;10.43;;;;;;;;;;5010400;28;20488;-71
2023/07/27 03:28:58;;;;;;;22.00;15.20;;;;;;;;;;5009818;28;20033;-71
2023/07/27 03:31:25;;;;;;;17.95;13.55;;;;;;;;;;5010003;28;20026;-71
2023/07/27 03:33:51;;;;;;;15.85;11.90;;;;;;;;;;5010423;28;20124;-71
2023/07/27 03:36:18;;;;;;;18.35;12.50;;;;;;;;;;5010350;28;20022;-71
2023/07/27 03:38:44;;;;;;;19.90;14.73;;;;;;;;;;5010092;28;20072;-71
2023/07/27 03:41:11;;;;;;;20.35;14.88;;;;;;;;;;4992354;28;20033;-71
2023/07/27 03:43:37;;;;;;;19.52;13.25;;;;;;;;;;5009868;28;20034;-71
2023/07/27 03:46:03;;;;;;;22.08;14.25;;;;;;;;;;4992321;28;20391;-71
2023/07/27 03:48:29;;;;;;;20.73;13.00;;;;;;;;;;5010181;28;20030;-70
2023/07/27 03:50:55;;;;;;;21.73;16.20;;;;;;;;;;5009468;28;20064;-71
2023/07/27 03:53:21;;;;;;;22.13;15.63;;;;;;;;;;5009470;28;20181;-70
2023/07/27 03:55:47;;;;;;;20.08;15.48;;;;;;;;;;5009854;28;20029;-71
2023/07/27 03:58:13;;;;;;;22.60;14.65;;;;;;;;;;5010089;28;20169;-71
2023/07/27 04:00:39;;;;;;;20.33;14.77;;;;;;;;;;5009593;28;20029;-72
2023/07/27 04:03:05;;;;;;;26.80;18.50;;;;;;;;;;5010358;28;20372;-70
2023/07/27 04:05:31;;;;;;;22.40;17.10;;;;;;;;;;5009548;28;20088;-71
2023/07/27 04:07:57;;;;;;;30.50;21.13;;;;;;;;;;5009999;28;20022;-71
2023/07/27 04:10:24;;;;;;;19.88;14.82;;;;;;;;;;5009581;28;20104;-71
2023/07/27 04:12:50;;;;;;;19.25;13.88;;;;;;;;;;5009678;28;20085;-71
2023/07/27 04:15:17;;;;;;;18.55;13.60;;;;;;;;;;4991832;28;20034;-72
2023/07/27 04:17:43;;;;;;;20.30;14.40;;;;;;;;;;5009690;28;20133;-72
2023/07/27 04:20:09;;;;;;;20.77;13.93;;;;;;;;;;5009676;28;20080;-72
2023/07/27 04:22:35;;;;;;;18.27;10.85;;;;;;;;;;5009789;28;20168;-72
2023/07/27 04:25:01;;;;;;;10.82;6.72;;;;;;;;;;5009632;28;20112;-73
2023/07/27 04:27:27;;;;;;;14.57;9.40;;;;;;;;;;5009811;28;20057;-72
2023/07/27 04:29:53;;;;;;;18.58;12.23;;;;;;;;;;5009685;28;20388;-72
2023/07/27 04:32:19;;;;;;;16.05;11.88;;;;;;;;;;5009623;28;20042;-71
2023/07/27 04:34:45;;;;;;;14.85;9.98;;;;;;;;;;5011399;28;20124;-73
2023/07/27 04:37:11;;;;;;;14.18;9.00;;;;;;;;;;4995352;28;20026;-71
2023/07/27 04:39:37;;;;;;;18.90;11.07;;;;;;;;;;5013215;28;20113;-72
2023/07/27 04:42:03;;;;;;;11.52;7.25;;;;;;;;;;5012748;28;20101;-72
2023/07/27 04:44:29;;;;;;;10.25;6.82;;;;;;;;;;5013140;28;20048;-72
2023/07/27 04:46:55;;;;;;;8.20;5.47;;;;;;;;;;5012953;28;20021;-73
2023/07/27 04:49:21;;;;;;;11.88;7.82;;;;;;;;;;5012684;28;20030;-72
2023/07/27 04:51:47;;;;;;;14.57;9.48;;;;;;;;;;4995169;28;20034;-72
2023/07/27 04:54:13;;;;;;;11.05;8.45;;;;;;;;;;5012583;28;20664;-72
2023/07/27 04:56:39;;;;;;;10.00;6.53;;;;;;;;;;4995053;28;20121;-72
2023/07/27 04:59:05;;;;;;;7.53;4.80;;;;;;;;;;5012614;28;20036;-72
2023/07/27 05:01:31;;;;;;;14.00;9.55;;;;;;;;;;5012965;28;20058;-73
2023/07/27 05:03:57;;;;;;;13.18;9.55;;;;;;;;;;5012965;28;20061;-72
2023/07/27 05:06:23;;;;;;;14.23;10.38;;;;;;;;;;5012774;28;20022;-75
2023/07/27 05:08:49;;;;;;;12.88;9.65;;;;;;;;;;5012676;28;20026;-72
2023/07/27 05:11:15;;;;;;;11.48;7.88;;;;;;;;;;5012710;28;20052;-75
2023/07/27 05:13:41;;;;;;;12.43;8.48;;;;;;;;;;5011974;28;20046;-73
2023/07/27 05:16:07;;;;;;;11.05;7.75;;;;;;;;;;5012749;28;20088;-73
2023/07/27 05:18:33;;;;;;;9.57;6.38;;;;;;;;;;5012786;28;20112;-74
2023/07/27 05:21:00;;;;;;;10.60;7.35;;;;;;;;;;5012539;28;20097;-73
2023/07/27 05:23:26;;;;;;;12.45;8.60;;;;;;;;;;5012429;28;20034;-73
2023/07/27 05:25:52;;;;;;;11.13;7.10;;;;;;;;;;5013833;28;20564;-74
2023/07/27 05:28:19;;;;;;;12.25;9.23;;;;;;;;;;5013686;28;20084;-74
2023/07/27 05:30:45;;;;;;;12.30;9.90;;;;;;;;;;5012064;28;20037;-74
2023/07/27 05:33:11;;;;;;;13.75;10.50;;;;;;;;;;5012473;28;20407;-73
2023/07/27 05:35:37;;;;;;;11.95;8.38;;;;;;;;;;5012063;28;20030;-74
2023/07/27 05:38:03;;;;;;;12.10;8.65;;;;;;;;;;5012009;28;20542;-73
2023/07/27 05:40:28;;;;;;;11.13;7.60;;;;;;;;;;5012250;28;20032;-74
2023/07/27 05:42:54;;;;;;;11.82;7.60;;;;;;;;;;5011578;28;20029;-73
2023/07/27 05:45:20;;;;;;;10.88;8.27;;;;;;;;;;5011426;28;20110;-74
2023/07/27 05:47:47;;;;;;;9.50;6.75;;;;;;;;;;4994256;28;20495;-75
2023/07/27 05:50:13;;;;;;;8.57;5.32;;;;;;;;;;5012214;28;20030;-74
2023/07/27 05:52:39;;;;;;;14.90;8.40;;;;;;;;;;4994034;28;20423;-75
2023/07/27 05:55:05;;;;;;;9.82;6.35;;;;;;;;;;4993597;28;20088;-74
2023/07/27 05:57:31;;;;;;;8.13;4.75;;;;;;;;;;5012060;28;20018;-73
2023/07/27 05:59:57;;;;;;;7.80;5.53;;;;;;;;;;5011697;28;20391;-75
2023/07/27 06:02:23;;;;;;;9.32;6.00;;;;;;;;;;5012332;28;20025;-74
2023/07/27 06:04:49;;;;;;;10.20;6.20;;;;;;;;;;5011871;28;20153;-75
2023/07/27 06:07:15;;;;;;;9.90;6.30;;;;;;;;;;5011210;28;20058;-74
2023/07/27 06:09:41;;;;;;;9.48;5.68;;;;;;;;;;5011469;28;20451;-75
2023/07/27 06:12:13;;;;;;;9.70;7.57;;;;;;;;;;5011717;28;20042;-74
2023/07/27 06:14:39;;;;;;;10.10;6.22;;;;;;;;;;5011645;28;20088;-75
2023/07/27 06:17:06;;;;;;;9.25;6.43;;;;;;;;;;5011822;28;20125;-74
2023/07/27 06:19:32;;;;;;;12.07;7.38;;;;;;;;;;5011323;28;20025;-74
2023/07/27 06:21:58;;;;;;;7.90;4.90;;;;;;;;;;5011560;28;20150;-74
2023/07/27 06:24:24;;;;;;;8.38;6.40;;;;;;;;;;5010856;28;20108;-75
2023/07/27 06:26:50;;;;;;;8.00;6.13;;;;;;;;;;5011452;28;20042;-73
2023/07/27 06:29:16;;;;;;;8.77;5.82;;;;;;;;;;5010654;28;20121;-73
2023/07/27 06:31:42;;;;;;;7.65;5.43;;;;;;;;;;5011165;28;20481;-74
2023/07/27 06:34:08;;;;;;;6.57;4.68;;;;;;;;;;5011173;28;20049;-74
2023/07/27 06:36:34;;;;;;;8.23;4.10;;;;;;;;;;5010632;28;20026;-74
2023/07/27 06:39:00;;;;;;;5.45;4.05;;;;;;;;;;5010429;28;20034;-74
2023/07/27 06:41:26;;;;;;;6.68;4.47;;;;;;;;;;5011129;28;20103;-75
2023/07/27 06:43:52;;;;;;;5.00;2.90;;;;;;;;;;5010614;28;20033;-74
2023/07/27 06:46:19;;;;;;;5.70;2.92;;;;;;;;;;5010457;28;20404;-74
2023/07/27 06:48:48;;;;;;;4.22;2.50;;;;;;;;;;5010316;28;20110;-74
2023/07/27 06:51:14;;;;;;;5.95;4.38;;;;;;;;;;5010271;28;20022;-74
2023/07/27 06:53:40;;;;;;;6.45;4.35;;;;;;;;;;5010152;28;20058;-74
2023/07/27 06:56:06;;;;;;;4.72;3.28;;;;;;;;;;4992470;28;20025;-73
2023/07/27 06:58:32;;;;;;;6.22;4.00;;;;;;;;;;5009439;28;20026;-74
2023/07/27 07:00:58;;;;;;;6.55;4.13;;;;;;;;;;5010276;28;20030;-74
2023/07/27 07:03:24;;;;;;;3.95;2.80;;;;;;;;;;5010416;28;20040;-74
2023/07/27 07:05:50;;;;;;;5.75;3.83;;;;;;;;;;5010550;28;20104;-75
2023/07/27 07:08:16;;;;;;;5.72;4.03;;;;;;;;;;5010265;28;20029;-73
2023/07/27 07:10:42;;;;;;;4.70;2.83;;;;;;;;;;5010176;28;20026;-74
2023/07/27 07:13:08;;;;;;;4.47;2.80;;;;;;;;;;5010473;28;20388;-76
2023/07/27 07:15:34;;;;;;;5.68;3.35;;;;;;;;;;4992511;28;20034;-74
2023/07/27 07:18:00;;;;;;;3.97;2.30;;;;;;;;;;5010426;28;20590;-75
2023/07/27 07:20:26;;;;;;;4.43;2.15;;;;;;;;;;5010222;28;20030;-73
2023/07/27 07:22:52;;;;;;;4.38;2.67;;;;;;;;;;5010191;28;20401;-74
2023/07/27 07:25:18;;;;;;;4.53;2.90;;;;;;;;;;5010588;28;20068;-74
2023/07/27 07:27:44;;;;;;;3.92;2.22;;;;;;;;;;5010081;28;20065;-73
2023/07/27 07:30:11;;;;;;;7.43;2.58;;;;;;;;;;5010305;28;20459;-74
2023/07/27 07:32:37;;;;;;;3.25;1.60;;;;;;;;;;5009520;28;20022;-73
2023/07/27 07:35:03;;;;;;;4.22;2.58;;;;;;;;;;5010156;28;20128;-73
2023/07/27 07:37:29;;;;;;;2.90;1.63;;;;;;;;;;5010408;28;20048;-73
2023/07/27 07:39:55;;;;;;;3.45;1.35;;;;;;;;;;5010006;28;20030;-75
2023/07/27 07:42:21;;;;;;;4.13;2.33;;;;;;;;;;5009711;28;20116;-74
2023/07/27 07:44:48;;;;;;;5.45;2.30;;;;;;;;;;5009663;28;20036;-75
2023/07/27 07:47:14;;;;;;;6.28;3.03;;;;;;;;;;4992841;28;20054;-71
2023/07/27 07:49:40;;;;;;;5.55;3.83;;;;;;;;;;4991868;28;20026;-71
2023/07/27 07:52:06;;;;;;;4.93;3.00;;;;;;;;;;5009385;28;20137;-70
2023/07/27 07:54:32;;;;;;;4.70;3.38;;;;;;;;;;5009695;28;20085;-71
2023/07/27 07:56:58;;;;;;;4.70;3.22;;;;;;;;;;5009802;28;20656;-71
2023/07/27 07:59:25;;;;;;;7.82;3.95;;;;;;;;;;5010102;28;20101;-72
2023/07/27 08:01:51;;;;;;;6.25;3.70;;;;;;;;;;5010508;28;20417;-72
2023/07/27 08:04:18;;;;;;;5.43;2.65;;;;;;;;;;4991870;28;20117;-73
2023/07/27 08:06:45;;;;;;;6.22;3.83;;;;;;;;;;5010097;28;20077;-71
2023/07/27 08:09:11;;;;;;;4.80;2.00;;;;;;;;;;5011712;28;20026;-71
2023/07/27 08:11:41;;;;;;;6.43;3.03;;;;;;;;;;5013698;28;20029;-72
2023/07/27 08:14:07;;;;;;;5.03;2.75;;;;;;;;;;5014048;28;20072;-73
2023/07/27 08:16:33;;;;;;;4.50;3.33;;;;;;;;;;5013684;28;20028;-71
2023/07/27 08:18:59;;;;;;;3.45;2.20;;;;;;;;;;5013896;28;20030;-72
2023/07/27 08:21:28;;;;;;;4.15;2.70;;;;;;;;;;5014048;28;20029;-73
2023/07/27 08:23:54;;;;;;;4.15;2.63;;;;;;;;;;5013861;28;20021;-75
2023/07/27 08:26:20;;;;;;;4.30;2.92;;;;;;;;;;5013295;28;20029;-72
2023/07/27 08:28:47;;;;;;;2.63;1.83;;;;;;;;;;5013105;28;20080;-73
2023/07/27 08:31:14;;;;;;;5.20;3.15;;;;;;;;;;5013467;28;20476;-71
2023/07/27 08:33:40;;;;;;;3.30;1.95;;;;;;;;;;5013338;28;20041;-71
2023/07/27 08:36:06;;;;;;;4.13;2.83;;;;;;;;;;5013884;28;20096;-71
2023/07/27 08:38:32;;;;;;;5.32;3.95;;;;;;;;;;5014314;28;20391;-72
2023/07/27 08:40:59;;;;;;;3.65;2.25;;;;;;;;;;5013365;28;20540;-72
2023/07/27 08:43:25;;;;;;;2.67;1.73;;;;;;;;;;5013812;28;20022;-72
2023/07/27 08:45:51;;;;;;;4.97;3.47;;;;;;;;;;5013548;28;20460;-71
2023/07/27 08:48:17;;;;;;;5.18;3.03;;;;;;;;;;5013604;28;20121;-73
2023/07/27 08:50:44;;;;;;;4.85;2.38;;;;;;;;;;5013489;28;20113;-75
2023/07/27 08:53:10;;;;;;;5.30;3.47;;;;;;;;;;5012635;28;20461;-75
2023/07/27 08:55:37;;;;;;;6.18;3.53;;;;;;;;;;5013023;28;20061;-73
2023/07/27 08:58:03;;;;;;;4.60;3.25;;;;;;;;;;5013169;28;20026;-74
2023/07/27 09:00:29;;;;;;;5.00;3.47;;;;;;;;;;4995746;28;20033;-72
2023/07/27 09:02:58;;;;;;;7.38;3.40;;;;;;;;;;5013255;28;20018;-74
2023/07/27 09:05:38;;;;;;;7.13;3.55;;;;;;;;;;5012843;28;20437;-73
2023/07/27 09:08:08;;;;;;;5.43;3.67;;;;;;;;;;5012912;28;20491;-72
2023/07/27 09:10:35;;;;;;;6.38;3.70;;;;;;;;;;5013078;28;20025;-73
2023/07/27 09:13:01;;;;;;;5.32;4.00;;;;;;;;;;5012528;28;20030;-73
2023/07/27 09:15:27;;;;;;;6.40;4.15;;;;;;;;;;5013141;28;20026;-72
2023/07/27 09:17:58;;;;;;;6.85;4.05;;;;;;;;;;5013018;28;20029;-73
2023/07/27 09:20:24;;;;;;;6.63;3.92;;;;;;;;;;5011671;28;20185;-72
2023/07/27 09:22:50;;;;;;;5.43;3.90;;;;;;;;;;5013136;28;20026;-75
2023/07/27 09:25:21;;;;;;;6.30;4.22;;;;;;;;;;5012816;28;20026;-74
2023/07/27 09:27:47;;;;;;;6.68;3.88;;;;;;;;;;4995332;28;20094;-75
2023/07/27 09:30:17;;;;;;;4.78;3.03;;;;;;;;;;5014201;28;20030;-75
2023/07/27 09:32:43;;;;;;;5.85;3.25;;;;;;;;;;5012949;28;20033;-73
2023/07/27 09:35:13;;;;;;;6.20;3.60;;;;;;;;;;5012155;28;20125;-74
2023/07/27 09:37:39;;;;;;;;;;;;;;;;;;4988045;28;20038;-72
2023/07/27 09:40:08;;;;;;;3.92;2.95;;;;;;;;;;5012597;28;20001;-73
2023/07/27 09:42:34;;;;;;;5.28;3.60;;;;;;;;;;5013085;28;20077;-71
2023/07/27 09:45:00;;;;;;;7.55;3.40;;;;;;;;;;5012520;28;20092;-71
2023/07/27 09:47:31;;;;;;;6.13;3.83;;;;;;;;;;5012442;28;20029;-73
2023/07/27 09:49:58;;;;;;;5.28;3.95;;;;;;;;;;5012552;28;20033;-72
2023/07/27 09:52:26;;;;;;;7.13;3.47;;;;;;;;;;5011643;28;20030;-75
2023/07/27 09:54:54;;;;;;;5.60;3.75;;;;;;;;;;5011888;28;20049;-74
2023/07/27 09:57:20;;;;;;;5.63;2.90;;;;;;;;;;5011889;28;20386;-73
2023/07/27 09:59:47;;;;;;;8.68;3.63;;;;;;;;;;4994719;28;20399;-73
2023/07/27 10:02:13;;;;;;;7.80;4.85;;;;;;;;;;5011791;28;20507;-73
2023/07/27 10:04:39;;;;;;;6.57;4.45;;;;;;;;;;5004329;28;20087;-74
2023/07/27 10:07:05;;;;;;;8.35;4.90;;;;;;;;;;5011911;28;20083;-74
2023/07/27 10:09:32;;;;;;;7.68;4.82;;;;;;;;;;5012015;28;20022;-72
2023/07/27 10:12:01;;;;;;;8.07;5.32;;;;;;;;;;5011559;28;20025;-74
2023/07/27 10:14:28;;;;;;;7.53;5.63;;;;;;;;;;5011736;28;20511;-74
2023/07/27 10:17:06;;;;;;;8.50;6.68;;;;;;;;;;5011949;28;20036;-72
2023/07/27 10:19:42;;;;;;;9.48;6.85;;;;;;;;;;5011556;28;20026;-73
2023/07/27 10:22:09;;;;;;;7.50;5.68;;;;;;;;;;5011687;28;20018;-73
2023/07/27 10:24:54;;;;;;;9.73;6.57;;;;;;;;;;5011905;28;20029;-74
2023/07/27 10:27:20;;;;;;;8.75;6.10;;;;;;;;;;5011837;28;20324;-72
2023/07/27 10:30:16;;;;;;;7.38;5.18;;;;;;;;;;4993824;28;20392;-72
2023/07/27 10:33:04;;;;;;;6.65;4.68;;;;;;;;;;4994235;28;20388;-74
2023/07/27 10:35:31;;;;;;;8.15;6.68;;;;;;;;;;5011587;28;20038;-72
2023/07/27 10:37:57;;;;;;;5.85;4.45;;;;;;;;;;5010897;28;20022;-72
2023/07/27 10:40:26;;;;;;;7.38;5.95;;;;;;;;;;5011227;28;20034;-73
2023/07/27 10:42:56;;;;;;;9.35;7.15;;;;;;;;;;5011451;28;20025;-73
2023/07/27 10:45:26;;;;;;;8.40;5.30;;;;;;;;;;5011092;28;20033;-72
2023/07/27 10:47:56;;;;;;;7.90;5.53;;;;;;;;;;5011841;28;20477;-74
2023/07/27 10:50:22;;;;;;;10.40;7.88;;;;;;;;;;5011030;28;20030;-72
2023/07/27 10:52:52;;;;;;;8.10;6.28;;;;;;;;;;5011033;28;20049;-72
2023/07/27 10:55:20;;;;;;;8.88;7.43;;;;;;;;;;4998711;28;20062;-72
2023/07/27 10:57:46;;;;;;;8.27;7.10;;;;;;;;;;4991548;28;20085;-72
2023/07/27 11:00:13;;;;;;;8.63;7.47;;;;;;;;;;4991955;28;20054;-74
2023/07/27 11:02:41;;;;;;;9.10;7.55;;;;;;;;;;4990672;28;20026;-73
2023/07/27 11:05:08;;;;;;;9.73;7.68;;;;;;;;;;4991376;28;20060;-72
2023/07/27 11:07:34;;;;;;;9.95;7.60;;;;;;;;;;4991159;28;20488;-75
2023/07/27 11:10:10;;;;;;;7.95;6.57;;;;;;;;;;4991093;28;20026;-72
2023/07/27 11:12:53;;;;;;;8.80;7.00;;;;;;;;;;4991328;28;20082;-73
2023/07/27 11:15:23;;;;;;;8.80;6.80;;;;;;;;;;4990463;28;20089;-73
2023/07/27 11:17:53;;;;;;;10.05;8.25;;;;;;;;;;4991023;28;20488;-73
2023/07/27 11:20:20;;;;;;;9.90;7.78;;;;;;;;;;4990589;28;20038;-73
2023/07/27 11:22:53;;;;;;;8.38;6.97;;;;;;;;;;4991581;28;20030;-72
2023/07/27 11:25:19;;;;;;;7.75;6.68;;;;;;;;;;4990786;28;20407;-73
2023/07/27 11:27:48;;;;;;;8.35;7.50;;;;;;;;;;4990692;28;20113;-74
2023/07/27 11:30:17;;;;;;;9.32;7.45;;;;;;;;;;4990849;28;20030;-73
2023/07/27 11:32:43;;;;;;;7.50;6.15;;;;;;;;;;4990494;28;20117;-74
2023/07/27 11:35:09;;;;;;;9.00;5.82;;;;;;;;;;4990618;28;20511;-73
2023/07/27 11:37:35;;;;;;;5.95;4.60;;;;;;;;;;4990819;28;20022;-74
2023/07/27 11:40:01;;;;;;;7.30;5.00;;;;;;;;;;4972938;28;20026;-73
2023/07/27 11:42:28;;;;;;;8.38;7.18;;;;;;;;;;4990536;28;20124;-72
2023/07/27 11:44:54;;;;;;;9.73;5.97;;;;;;;;;;4989948;28;20026;-73
2023/07/27 11:47:20;;;;;;;8.93;6.68;;;;;;;;;;4990139;28;20455;-72
2023/07/27 11:49:46;;;;;;;8.35;7.45;;;;;;;;;;4990420;28;20035;-74
2023/07/27 11:52:12;;;;;;;10.40;7.75;;;;;;;;;;4990032;28;20537;-75
2023/07/27 11:54:42;;;;;;;9.32;7.53;;;;;;;;;;4996401;28;20054;-73
2023/07/27 11:57:15;;;;;;;6.53;5.47;;;;;;;;;;5010274;28;20054;-75
2023/07/27 11:59:41;;;;;;;9.80;7.53;;;;;;;;;;5009498;28;20037;-75
2023/07/27 12:02:07;;;;;;;8.23;6.80;;;;;;;;;;5010287;28;20026;-72
2023/07/27 12:04:33;;;;;;;9.32;7.50;;;;;;;;;;5010099;28;20476;-73
2023/07/27 12:06:59;;;;;;;9.80;7.97;;;;;;;;;;5010100;28;20057;-73
2023/07/27 12:09:27;;;;;;;8.77;7.80;;;;;;;;;;5009790;28;20084;-72
2023/07/27 12:11:53;;;;;;;7.13;5.10;;;;;;;;;;5009539;28;20050;-73
2023/07/27 12:14:20;;;;;;;7.25;6.38;;;;;;;;;;5007919;28;20757;-73
2023/07/27 12:16:47;;;;;;;7.85;4.60;;;;;;;;;;5008243;28;20116;-73
2023/07/27 12:19:13;;;;;;;7.72;6.30;;;;;;;;;;5007872;28;20030;-75
2023/07/27 12:21:39;;;;;;;9.00;6.60;;;;;;;;;;5000725;28;20026;-72
2023/07/27 12:24:09;;;;;;;7.90;5.45;;;;;;;;;;5009343;28;20026;-73
2023/07/27 12:26:35;;;;;;;8.20;6.63;;;;;;;;;;5008374;28;20480;-74
2023/07/27 12:29:01;;;;;;;6.55;5.43;;;;;;;;;;5007353;28;20480;-71
2023/07/27 12:31:28;;;;;;;7.00;6.00;;;;;;;;;;5009764;28;20026;-73
2023/07/27 12:33:54;;;;;;;9.63;7.05;;;;;;;;;;5009167;28;20111;-73
2023/07/27 12:36:20;;;;;;;7.45;6.18;;;;;;;;;;5009384;28;20037;-73
2023/07/27 12:38:47;;;;;;;8.45;7.22;;;;;;;;;;5009180;28;20029;-72
2023/07/27 12:41:13;;;;;;;8.88;4.68;;;;;;;;;;5009436;28;20022;-73
2023/07/27 12:43:39;;;;;;;9.55;7.10;;;;;;;;;;5009234;28;20119;-73
2023/07/27 12:46:06;;;;;;;9.13;6.53;;;;;;;;;;5010071;28;20117;-72
2023/07/27 12:48:32;;;;;;;7.47;6.18;;;;;;;;;;5009957;28;20127;-72
2023/07/27 12:50:58;;;;;;;9.68;6.78;;;;;;;;;;5009811;28;20022;-73
2023/07/27 12:53:24;;;;;;;7.20;5.75;;;;;;;;;;5008638;28;20065;-73
2023/07/27 12:55:50;;;;;;;8.15;6.72;;;;;;;;;;5011594;28;20053;-74
2023/07/27 12:58:16;;;;;;;6.88;6.15;;;;;;;;;;5012634;28;20168;-71
2023/07/27 13:00:44;;;;;;;10.82;6.05;;;;;;;;;;5012570;28;20149;-72
2023/07/27 13:03:10;;;;;;;5.50;3.10;;;;;;;;;;5012791;28;20476;-71
2023/07/27 13:05:35;;;;;;;7.40;6.60;;;;;;;;;;4994951;28;20037;-73
2023/07/27 13:08:02;;;;;;;7.63;6.70;;;;;;;;;;5012170;28;20411;-74
2023/07/27 13:10:28;;;;;;;7.05;5.72;;;;;;;;;;5012595;28;20467;-72
2023/07/27 13:12:54;;;;;;;7.97;7.18;;;;;;;;;;5012918;28;20029;-73
2023/07/27 13:15:20;;;;;;;6.25;5.32;;;;;;;;;;5012320;28;20042;-73
2023/07/27 13:17:47;;;;;;;7.93;7.15;;;;;;;;;;5012505;28;20022;-72
2023/07/27 13:20:13;;;;;;;5.45;4.57;;;;;;;;;;5012246;28;20022;-73
2023/07/27 13:22:39;;;;;;;8.93;7.03;;;;;;;;;;5012520;28;20088;-73
2023/07/27 13:25:05;;;;;;;8.35;6.63;;;;;;;;;;5012794;28;20038;-73
2023/07/27 13:27:32;;;;;;;5.88;4.47;;;;;;;;;;5012675;28;20053;-73
2023/07/27 13:29:58;;;;;;;7.13;5.85;;;;;;;;;;5012368;28;20026;-73
2023/07/27 13:32:24;;;;;;;4.85;4.05;;;;;;;;;;5012209;28;20026;-73
2023/07/27 13:34:50;;;;;;;5.53;4.55;;;;;;;;;;5012412;28;20070;-74
2023/07/27 13:37:16;;;;;;;5.65;4.03;;;;;;;;;;5011999;28;20053;-74
2023/07/27 13:39:42;;;;;;;4.93;3.38;;;;;;;;;;5012021;28;20058;-74
2023/07/27 13:42:08;;;;;;;5.97;5.15;;;;;;;;;;5011972;28;20038;-73
2023/07/27 13:44:34;;;;;;;6.95;6.10;;;;;;;;;;5012079;28;20029;-72
2023/07/27 13:47:00;;;;;;;6.55;5.60;;;;;;;;;;5012336;28;20044;-76
2023/07/27 13:49:26;;;;;;;7.00;5.97;;;;;;;;;;5012383;28;20037;-72
2023/07/27 13:51:53;;;;;;;7.30;5.68;;;;;;;;;;5011940;28;20025;-73
2023/07/27 13:54:19;;;;;;;5.45;4.22;;;;;;;;;;5011188;28;20058;-74
2023/07/27 13:56:45;;;;;;;4.70;3.70;;;;;;;;;;5012333;28;20392;-72
2023/07/27 13:59:12;;;;;;;3.85;2.65;;;;;;;;;;5012259;28;20120;-74
2023/07/27 14:01:38;;;;;;;3.17;2.40;;;;;;;;;;4994437;28;20022;-73
2023/07/27 14:04:04;;;;;;;4.03;2.38;;;;;;;;;;5010817;28;20030;-73
2023/07/27 14:06:30;;;;;;;3.45;2.20;;;;;;;;;;5011380;28;20076;-72
2023/07/27 14:08:58;;;;;;;4.85;2.63;;;;;;;;;;5011436;28;20064;-75
2023/07/27 14:11:24;;;;;;;3.40;2.08;;;;;;;;;;5011546;28;20026;-73
2023/07/27 14:13:50;;;;;;;3.78;2.40;;;;;;;;;;5011497;28;20045;-73
2023/07/27 14:16:16;;;;;;;3.75;2.33;;;;;;;;;;5011636;28;20030;-73
2023/07/27 14:18:43;;;;;;;3.95;2.55;;;;;;;;;;5011008;28;20492;-74
2023/07/27 14:21:09;;;;;;;6.90;3.20;;;;;;;;;;5011532;28;20025;-74
2023/07/27 14:23:35;;;;;;;5.85;2.40;;;;;;;;;;5011533;28;20026;-73
2023/07/27 14:26:02;;;;;;;3.85;2.50;;;;;;;;;;5011322;28;20025;-74
2023/07/27 14:28:28;;;;;;;3.97;3.03;;;;;;;;;;5010763;28;20400;-75
2023/07/27 14:30:56;;;;;;;5.28;3.30;;;;;;;;;;4993857;28;20029;-78
2023/07/27 14:33:22;;;;;;;4.63;2.78;;;;;;;;;;5011093;28;20033;-73
2023/07/27 14:35:48;;;;;;;5.03;3.28;;;;;;;;;;5010834;28;20033;-75